createdAt,value
2018-11-06T00:00:42.706Z,94.39
2018-11-06T00:04:15.070Z,94.10
2018-11-06T00:06:44.465Z,94.40
2018-11-06T00:09:14.187Z,93.94
2018-11-06T00:11:43.589Z,94.60
2018-11-06T00:14:12.955Z,94.49
2018-11-06T00:16:42.926Z,94.21
2018-11-06T00:19:12.359Z,94.33
2018-11-06T00:21:41.742Z,94.55
2018-11-06T00:24:11.310Z,94.16
2018-11-06T00:26:40.699Z,94.55
2018-11-06T00:29:10.132Z,95.54
2018-11-06T00:31:39.536Z,94.93
2018-11-06T00:34:09.199Z,94.75
2018-11-06T00:36:38.652Z,95.14
2018-11-06T00:39:09.151Z,95.20
2018-11-06T00:41:39.074Z,95.54
2018-11-06T00:44:08.709Z,95.80
2018-11-06T00:46:38.086Z,95.73
2018-11-06T00:49:07.518Z,95.35
2018-11-06T00:51:37.218Z,95.75
2018-11-06T00:54:07.158Z,95.81
2018-11-06T00:56:37.002Z,96.09
2018-11-06T00:59:06.447Z,95.44
2018-11-06T01:01:35.858Z,96.37
2018-11-06T01:04:07.424Z,96.00
2018-11-06T01:06:36.924Z,96.10
2018-11-06T01:09:11.345Z,96.40
2018-11-06T01:11:41.573Z,96.37
2018-11-06T01:14:10.951Z,96.64
2018-11-06T01:16:41.199Z,96.74
2018-11-06T01:19:11.192Z,96.61
2018-11-06T01:21:40.569Z,96.54
2018-11-06T01:24:10.563Z,96.35
2018-11-06T01:26:39.922Z,96.42
2018-11-06T01:29:09.650Z,96.07
2018-11-06T01:31:39.003Z,95.85
2018-11-06T01:34:08.524Z,95.98
2018-11-06T01:36:37.978Z,95.05
2018-11-06T01:39:09.219Z,95.55
2018-11-06T01:41:39.194Z,95.52
2018-11-06T01:44:09.107Z,95.32
2018-11-06T01:46:38.548Z,95.41
2018-11-06T01:49:07.981Z,95.78
2018-11-06T01:51:37.663Z,95.93
2018-11-06T01:54:07.067Z,95.92
2018-11-06T01:56:36.643Z,95.63
2018-11-06T01:59:07.318Z,95.48
2018-11-06T02:01:36.745Z,96.01
2018-11-06T02:04:06.220Z,96.39
2018-11-06T02:06:35.725Z,97.34
2018-11-06T02:09:07.560Z,96.71
2018-11-06T02:11:36.926Z,96.55
2018-11-06T02:14:06.864Z,96.41
2018-11-06T02:16:36.293Z,96.05
2018-11-06T02:19:06.042Z,96.63
2018-11-06T02:21:35.432Z,96.54
2018-11-06T02:24:05.726Z,96.27
2018-11-06T02:26:35.063Z,96.07
2018-11-06T02:29:04.498Z,95.78
2018-11-06T02:31:33.907Z,95.35
2018-11-06T02:34:03.767Z,96.08
2018-11-06T02:36:33.181Z,95.81
2018-11-06T02:39:02.537Z,95.70
2018-11-06T02:41:32.055Z,95.65
2018-11-06T02:44:01.482Z,95.76
2018-11-06T02:46:30.901Z,95.77
2018-11-06T02:49:00.307Z,96.03
2018-11-06T02:51:30.179Z,95.52
2018-11-06T02:53:59.750Z,95.47
2018-11-06T02:56:29.222Z,95.89
2018-11-06T02:58:59.709Z,95.81
2018-11-06T03:01:29.127Z,95.51
2018-11-06T03:03:58.598Z,94.99
2018-11-06T03:06:27.988Z,94.96
2018-11-06T03:08:57.889Z,94.82
2018-11-06T03:11:27.294Z,94.37
2018-11-06T03:13:56.799Z,94.65
2018-11-06T03:16:26.197Z,94.52
2018-11-06T03:18:55.554Z,94.21
2018-11-06T03:21:25.105Z,94.80
2018-11-06T03:23:54.479Z,94.94
2018-11-06T03:26:23.921Z,94.84
2018-11-06T03:28:53.434Z,94.55
2018-11-06T03:31:22.805Z,94.70
2018-11-06T03:33:52.202Z,94.71
2018-11-06T03:36:21.597Z,94.21
2018-11-06T03:38:50.972Z,94.02
2018-11-06T03:41:20.354Z,94.50
2018-11-06T03:43:49.770Z,94.20
2018-11-06T03:46:19.212Z,93.98
2018-11-06T03:48:48.658Z,93.94
2018-11-06T03:51:18.054Z,93.97
2018-11-06T03:53:47.571Z,93.74
2018-11-06T03:56:17.569Z,93.63
2018-11-06T03:58:47.093Z,92.79
2018-11-06T04:01:16.490Z,92.77
2018-11-06T04:03:45.890Z,92.51
2018-11-06T04:06:15.270Z,92.09
2018-11-06T04:08:44.650Z,92.53
2018-11-06T04:11:14.175Z,93.16
2018-11-06T04:13:43.672Z,92.54
2018-11-06T04:16:13.225Z,93.59
2018-11-06T04:18:42.635Z,93.79
2018-11-06T04:21:12.023Z,94.03
2018-11-06T04:23:41.574Z,93.97
2018-11-06T04:26:10.950Z,94.01
2018-11-06T04:28:40.330Z,94.11
2018-11-06T04:31:09.680Z,93.69
2018-11-06T04:33:39.160Z,94.19
2018-11-06T04:36:08.567Z,93.97
2018-11-06T04:38:37.965Z,93.97
2018-11-06T04:41:07.327Z,94.27
2018-11-06T04:43:36.875Z,93.44
2018-11-06T04:46:06.503Z,92.64
2018-11-06T04:48:35.971Z,92.83
2018-11-06T04:51:05.887Z,92.21
2018-11-06T04:53:35.821Z,91.61
2018-11-06T04:56:05.561Z,91.45
2018-11-06T04:58:34.914Z,91.17
2018-11-06T05:01:04.749Z,91.29
2018-11-06T05:03:34.328Z,91.90
2018-11-06T05:06:03.738Z,91.39
2018-11-06T05:08:33.167Z,91.56
2018-11-06T05:11:02.560Z,92.03
2018-11-06T05:13:32.076Z,92.55
2018-11-06T05:16:01.544Z,92.29
2018-11-06T05:18:30.934Z,91.84
2018-11-06T05:21:00.323Z,91.77
2018-11-06T05:23:29.702Z,91.65
2018-11-06T05:25:59.524Z,91.54
2018-11-06T05:28:29.180Z,91.31
2018-11-06T05:30:59.094Z,91.23
2018-11-06T05:33:28.537Z,91.26
2018-11-06T05:35:57.944Z,91.73
2018-11-06T05:38:27.448Z,91.54
2018-11-06T05:41:01.155Z,91.62
2018-11-06T05:43:30.561Z,91.64
2018-11-06T05:46:00.154Z,91.26
2018-11-06T05:48:29.678Z,91.81
2018-11-06T05:50:59.078Z,91.54
2018-11-06T05:53:28.498Z,91.33
2018-11-06T05:55:57.985Z,91.30
2018-11-06T05:58:27.389Z,91.05
2018-11-06T06:00:56.792Z,91.77
2018-11-06T06:03:26.172Z,91.84
2018-11-06T06:05:55.587Z,91.90
2018-11-06T06:08:24.983Z,91.37
2018-11-06T06:10:54.381Z,91.07
2018-11-06T06:13:23.816Z,91.26
2018-11-06T06:15:53.174Z,91.61
2018-11-06T06:18:22.721Z,91.07
2018-11-06T06:20:52.101Z,91.36
2018-11-06T06:23:21.630Z,90.95
2018-11-06T06:25:51.034Z,90.57
2018-11-06T06:28:20.652Z,92.95
2018-11-06T06:30:50.083Z,92.27
2018-11-06T06:33:19.696Z,92.88
2018-11-06T06:35:49.159Z,92.79
2018-11-06T06:38:18.564Z,93.25
2018-11-06T06:40:48.492Z,93.91
2018-11-06T06:43:17.991Z,94.44
2018-11-06T06:45:47.393Z,94.05
2018-11-06T06:48:18.012Z,94.60
2018-11-06T06:50:47.514Z,95.19
2018-11-06T06:53:17.010Z,95.31
2018-11-06T06:55:46.440Z,95.29
2018-11-06T06:58:15.788Z,95.30
2018-11-06T07:00:45.167Z,96.35
2018-11-06T07:03:14.570Z,95.95
2018-11-06T07:05:43.971Z,95.30
2018-11-06T07:08:13.670Z,95.08
2018-11-06T07:10:43.058Z,95.80
2018-11-06T07:13:12.721Z,96.35
2018-11-06T07:15:42.641Z,95.15
2018-11-06T07:18:12.010Z,94.94
